createdAt,value
2023-06-09T00:00:41.478Z,35.78
2023-06-09T00:01:41.588Z,35.81
2023-06-09T00:02:41.747Z,35.82
2023-06-09T00:03:41.685Z,35.79
2023-06-09T00:04:41.686Z,35.79
2023-06-09T00:05:41.744Z,35.81
2023-06-09T00:06:41.782Z,35.80
2023-06-09T00:07:41.836Z,35.81
2023-06-09T00:08:41.915Z,35.81
2023-06-09T00:09:41.971Z,35.83
2023-06-09T00:10:42.030Z,35.81
2023-06-09T00:11:42.061Z,35.82
2023-06-09T00:12:42.171Z,35.81
2023-06-09T00:13:42.183Z,35.82
2023-06-09T00:14:42.238Z,35.81
2023-06-09T00:15:42.277Z,35.82
2023-06-09T00:16:42.449Z,35.81
2023-06-09T00:17:42.464Z,35.79
2023-06-09T00:18:42.487Z,35.82
2023-06-09T00:19:42.552Z,35.80
2023-06-09T00:20:42.601Z,35.81
2023-06-09T00:21:42.651Z,35.82
2023-06-09T00:22:42.746Z,35.84
2023-06-09T00:23:42.844Z,35.82
2023-06-09T00:24:42.867Z,35.85
2023-06-09T00:25:42.922Z,35.84
2023-06-09T00:26:42.990Z,35.85
2023-06-09T00:27:43.081Z,35.82
2023-06-09T00:28:43.094Z,35.84
2023-06-09T00:29:43.173Z,35.85
2023-06-09T00:30:43.219Z,35.85
2023-06-09T00:31:43.384Z,35.84
2023-06-09T00:32:43.417Z,35.85
2023-06-09T00:33:43.394Z,35.85
2023-06-09T00:34:43.442Z,35.85
2023-06-09T00:35:43.500Z,35.84
2023-06-09T00:36:43.555Z,35.84
2023-06-09T00:37:43.633Z,35.84
2023-06-09T00:38:43.685Z,35.87
2023-06-09T00:39:43.718Z,35.84
2023-06-09T00:40:43.797Z,35.86
2023-06-09T00:41:43.836Z,35.83
2023-06-09T00:42:43.922Z,35.84
2023-06-09T00:43:43.959Z,35.85
2023-06-09T00:44:44.027Z,35.86
2023-06-09T00:45:44.142Z,35.86
2023-06-09T00:46:44.191Z,35.89
2023-06-09T00:47:44.246Z,35.86
2023-06-09T00:48:44.308Z,35.85
2023-06-09T00:49:44.326Z,35.85
2023-06-09T00:50:44.378Z,35.86
2023-06-09T00:51:44.453Z,35.87
2023-06-09T00:52:44.535Z,35.86
2023-06-09T00:53:44.521Z,35.88
2023-06-09T00:54:44.621Z,35.89
2023-06-09T00:55:44.656Z,35.86
2023-06-09T00:56:44.733Z,35.88
2023-06-09T00:57:44.800Z,35.87
2023-06-09T00:58:44.858Z,35.87
2023-06-09T00:59:44.973Z,35.87
2023-06-09T01:00:44.996Z,35.86
2023-06-09T01:01:45.133Z,35.86
2023-06-09T01:02:45.262Z,35.89
2023-06-09T01:03:45.161Z,35.88
2023-06-09T01:04:45.209Z,35.87
2023-06-09T01:05:45.318Z,35.88
2023-06-09T01:06:45.323Z,35.88
2023-06-09T01:07:45.383Z,35.89
2023-06-09T01:08:45.458Z,35.90
2023-06-09T01:09:45.487Z,35.88
2023-06-09T01:10:45.601Z,35.88
2023-06-09T01:11:45.633Z,35.88
2023-06-09T01:12:45.695Z,35.88
2023-06-09T01:13:45.806Z,35.88
2023-06-09T01:14:45.814Z,35.88
2023-06-09T01:15:45.889Z,35.90
2023-06-09T01:16:45.956Z,35.90
2023-06-09T01:17:46.041Z,35.89
2023-06-09T01:18:46.037Z,35.90
2023-06-09T01:19:46.088Z,35.90
2023-06-09T01:20:46.155Z,35.89
2023-06-09T01:21:46.248Z,35.90
2023-06-09T01:22:46.277Z,35.89
2023-06-09T01:23:46.398Z,35.91
2023-06-09T01:24:46.419Z,35.91
2023-06-09T01:25:46.463Z,35.91
2023-06-09T01:26:46.507Z,35.90
2023-06-09T01:27:46.558Z,35.89
2023-06-09T01:28:46.623Z,35.90
2023-06-09T01:29:46.650Z,35.93
2023-06-09T01:30:46.733Z,35.91
2023-06-09T01:31:46.814Z,35.92
2023-06-09T01:32:46.912Z,35.93
2023-06-09T01:33:46.916Z,35.92
2023-06-09T01:34:46.929Z,35.91
2023-06-09T01:35:47.000Z,35.91
2023-06-09T01:36:47.045Z,35.92
2023-06-09T01:37:47.090Z,35.91
2023-06-09T01:38:47.153Z,35.90
2023-06-09T01:39:47.215Z,35.91
2023-06-09T01:40:47.234Z,35.92
2023-06-09T01:41:47.281Z,35.91
2023-06-09T01:42:47.343Z,35.93
2023-06-09T01:43:47.387Z,35.91
2023-06-09T01:44:47.440Z,35.93
2023-06-09T01:45:47.544Z,35.94
2023-06-09T01:46:47.520Z,35.95
2023-06-09T01:47:47.684Z,35.93
2023-06-09T01:48:47.615Z,35.93
2023-06-09T01:49:47.700Z,35.91
2023-06-09T01:50:47.734Z,35.92
2023-06-09T01:51:47.802Z,35.93
2023-06-09T01:52:47.859Z,35.92
2023-06-09T01:53:47.892Z,35.91
2023-06-09T01:54:47.980Z,35.92
2023-06-09T01:55:48.023Z,35.93
2023-06-09T01:56:48.057Z,35.94
2023-06-09T01:57:48.127Z,35.94
2023-06-09T01:58:48.143Z,35.95
2023-06-09T01:59:48.217Z,35.94
2023-06-09T02:00:48.238Z,35.95
2023-06-09T02:01:48.355Z,35.93
2023-06-09T02:02:48.400Z,35.93
2023-06-09T02:03:48.427Z,35.94
2023-06-09T02:04:50.935Z,35.95
2023-06-09T02:05:48.452Z,35.95
2023-06-09T02:06:48.459Z,35.93
2023-06-09T02:07:48.466Z,35.95
2023-06-09T02:08:48.443Z,35.94
2023-06-09T02:09:48.413Z,35.93
2023-06-09T02:10:48.431Z,35.93
2023-06-09T02:11:48.430Z,35.94
2023-06-09T02:12:48.391Z,35.95
2023-06-09T02:13:48.427Z,35.96
2023-06-09T02:14:48.395Z,35.96
2023-06-09T02:15:48.438Z,35.95
2023-06-09T02:16:48.450Z,35.95
2023-06-09T02:17:48.443Z,35.94
2023-06-09T02:18:48.356Z,35.96
2023-06-09T02:19:48.335Z,35.98
2023-06-09T02:20:48.354Z,35.94
2023-06-09T02:21:48.363Z,35.94
2023-06-09T02:22:48.322Z,35.95
2023-06-09T02:23:48.350Z,35.97
2023-06-09T02:24:48.316Z,35.97
2023-06-09T02:25:48.331Z,35.97
2023-06-09T02:26:48.282Z,35.96
2023-06-09T02:27:48.274Z,35.97
2023-06-09T02:28:48.335Z,35.97
2023-06-09T02:29:48.291Z,35.97
2023-06-09T02:30:48.274Z,35.97
2023-06-09T02:31:48.374Z,35.97
2023-06-09T02:32:48.314Z,35.96
2023-06-09T02:33:48.249Z,35.97
2023-06-09T02:34:48.240Z,35.97
2023-06-09T02:35:48.251Z,35.98
2023-06-09T02:36:48.197Z,35.97
2023-06-09T02:37:48.207Z,35.98
2023-06-09T02:38:48.208Z,35.97
2023-06-09T02:39:48.284Z,35.99
2023-06-09T02:40:48.180Z,35.99
2023-06-09T02:41:48.194Z,35.98
2023-06-09T02:42:48.196Z,35.99
2023-06-09T02:43:48.186Z,36.02
2023-06-09T02:44:48.177Z,36.00
2023-06-09T02:45:48.247Z,36.00
2023-06-09T02:46:48.165Z,36.00
2023-06-09T02:47:48.881Z,36.00
2023-06-09T02:48:48.264Z,36.00
2023-06-09T02:49:48.294Z,36.00
2023-06-09T02:50:48.360Z,35.99
2023-06-09T02:51:48.498Z,36.01
2023-06-09T02:52:48.432Z,36.01
2023-06-09T02:53:48.477Z,36.00
2023-06-09T02:54:48.559Z,36.04
2023-06-09T02:55:48.563Z,36.01
2023-06-09T02:56:48.640Z,36.00
2023-06-09T02:57:48.688Z,36.02
2023-06-09T02:58:48.716Z,36.01
2023-06-09T02:59:48.825Z,36.00
2023-06-09T03:00:48.872Z,36.01
2023-06-09T03:01:48.852Z,36.01
2023-06-09T03:02:48.899Z,35.99
2023-06-09T03:03:48.943Z,36.01
2023-06-09T03:04:48.933Z,36.01
2023-06-09T03:05:48.929Z,36.02
2023-06-09T03:06:48.996Z,36.03
2023-06-09T03:07:48.987Z,36.00
2023-06-09T03:08:48.984Z,36.00
2023-06-09T03:09:49.052Z,36.03
2023-06-09T03:10:49.070Z,36.03
2023-06-09T03:11:49.135Z,36.00
2023-06-09T03:12:49.088Z,36.01
2023-06-09T03:13:49.128Z,36.02
2023-06-09T03:14:49.151Z,36.03
2023-06-09T03:15:49.181Z,36.03
2023-06-09T03:16:49.307Z,36.03
2023-06-09T03:17:49.329Z,36.01
2023-06-09T03:18:49.265Z,36.01
2023-06-09T03:19:49.286Z,36.02
2023-06-09T03:20:49.308Z,36.01
2023-06-09T03:21:49.347Z,36.02
2023-06-09T03:22:49.358Z,36.02
2023-06-09T03:23:49.423Z,36.00
2023-06-09T03:24:49.449Z,36.02
2023-06-09T03:25:49.443Z,36.01
2023-06-09T03:26:49.524Z,36.03
2023-06-09T03:27:49.494Z,35.99
2023-06-09T03:28:49.601Z,36.01
2023-06-09T03:29:49.568Z,36.02
2023-06-09T03:30:49.629Z,35.99
2023-06-09T03:31:49.652Z,36.00
2023-06-09T03:32:49.738Z,35.98
2023-06-09T03:33:49.741Z,36.00
2023-06-09T03:34:49.801Z,35.98
2023-06-09T03:35:49.828Z,35.99
2023-06-09T03:36:49.858Z,35.99
2023-06-09T03:37:49.911Z,35.99
2023-06-09T03:38:49.942Z,35.96
2023-06-09T03:39:49.953Z,35.96
2023-06-09T03:40:50.062Z,35.96
2023-06-09T03:41:50.090Z,35.96
2023-06-09T03:42:50.164Z,35.95
2023-06-09T03:43:50.181Z,35.94
2023-06-09T03:44:50.285Z,35.90
2023-06-09T03:45:50.322Z,35.77
2023-06-09T03:46:50.403Z,35.54
2023-06-09T03:47:50.425Z,35.35
2023-06-09T03:48:50.458Z,35.18
2023-06-09T03:49:50.488Z,35.05
2023-06-09T03:50:50.568Z,34.93
2023-06-09T03:51:50.566Z,34.85
2023-06-09T03:52:50.599Z,34.86
2023-06-09T03:53:50.656Z,34.98
2023-06-09T03:54:50.648Z,35.09
2023-06-09T03:55:50.668Z,35.19
2023-06-09T03:56:50.695Z,35.29
2023-06-09T03:57:50.741Z,35.32
2023-06-09T03:58:50.831Z,35.35
2023-06-09T03:59:50.814Z,35.37
2023-06-09T04:00:50.893Z,35.40
2023-06-09T04:01:51.001Z,35.31
2023-06-09T04:02:50.978Z,35.19
2023-06-09T04:03:51.034Z,35.16
2023-06-09T04:04:51.063Z,35.16
2023-06-09T04:05:51.109Z,35.24
2023-06-09T04:06:51.184Z,35.27
2023-06-09T04:07:51.678Z,35.28
2023-06-09T04:08:51.219Z,35.32
2023-06-09T04:09:51.274Z,35.28
2023-06-09T04:10:51.303Z,35.11
2023-06-09T04:11:51.384Z,34.68
2023-06-09T04:12:51.424Z,34.22
2023-06-09T04:13:51.449Z,33.81
2023-06-09T04:14:51.440Z,33.45
2023-06-09T04:15:51.456Z,33.30
2023-06-09T04:16:51.573Z,33.45
2023-06-09T04:17:51.640Z,33.80
2023-06-09T04:18:51.612Z,34.09
2023-06-09T04:19:51.610Z,34.35
2023-06-09T04:20:51.644Z,34.54
2023-06-09T04:21:51.640Z,34.67
2023-06-09T04:22:51.691Z,34.73
2023-06-09T04:23:51.681Z,34.82
2023-06-09T04:24:51.704Z,34.87
2023-06-09T04:25:51.737Z,34.91
2023-06-09T04:26:51.779Z,34.91
2023-06-09T04:27:51.842Z,34.96
2023-06-09T04:28:51.854Z,34.93
2023-06-09T04:29:51.937Z,34.89
2023-06-09T04:30:51.935Z,34.50
2023-06-09T04:31:52.017Z,33.85
2023-06-09T04:32:52.010Z,33.10
2023-06-09T04:33:52.033Z,32.45
2023-06-09T04:34:52.072Z,31.98
2023-06-09T04:35:52.098Z,31.64
2023-06-09T04:36:52.121Z,31.28
2023-06-09T04:37:52.126Z,31.01
2023-06-09T04:38:52.172Z,30.73
2023-06-09T04:39:52.205Z,30.56
2023-06-09T04:40:52.233Z,30.37
2023-06-09T04:41:52.250Z,30.28
2023-06-09T04:42:52.273Z,30.14
2023-06-09T04:43:52.283Z,30.04
2023-06-09T04:44:52.308Z,29.84
2023-06-09T04:45:52.440Z,29.67
2023-06-09T04:46:52.482Z,29.55
2023-06-09T04:47:52.468Z,29.34
2023-06-09T04:48:52.501Z,29.17
2023-06-09T04:49:52.549Z,29.04
2023-06-09T04:50:52.548Z,28.92
2023-06-09T04:51:52.572Z,28.86
2023-06-09T04:52:52.586Z,28.81
2023-06-09T04:53:52.594Z,28.71
2023-06-09T04:54:52.764Z,28.49
2023-06-09T04:55:52.621Z,28.36
2023-06-09T04:56:52.653Z,28.23
2023-06-09T04:57:52.681Z,28.11
2023-06-09T04:58:52.801Z,28.10
2023-06-09T04:59:53.273Z,28.50
2023-06-09T05:00:52.863Z,29.24
2023-06-09T05:01:52.997Z,30.02
2023-06-09T05:02:53.006Z,30.52
2023-06-09T05:03:52.986Z,30.93
2023-06-09T05:04:53.055Z,31.33
2023-06-09T05:05:53.124Z,31.61
2023-06-09T05:06:53.026Z,31.87
2023-06-09T05:07:53.079Z,32.08
2023-06-09T05:08:53.116Z,32.27
2023-06-09T05:09:53.128Z,32.39
2023-06-09T05:10:53.167Z,32.53
2023-06-09T05:11:53.207Z,32.68
2023-06-09T05:12:53.259Z,32.67
2023-06-09T05:13:53.329Z,32.74
2023-06-09T05:14:53.364Z,32.83
2023-06-09T05:15:53.478Z,32.96
2023-06-09T05:16:53.491Z,32.93
2023-06-09T05:17:53.531Z,32.98
2023-06-09T05:18:53.537Z,33.04
2023-06-09T05:19:53.564Z,33.07
2023-06-09T05:20:53.629Z,33.06
2023-06-09T05:21:53.620Z,33.16
2023-06-09T05:22:53.615Z,33.12
2023-06-09T05:23:53.649Z,33.18
2023-06-09T05:24:53.629Z,33.18
2023-06-09T05:25:53.644Z,33.25
2023-06-09T05:26:53.604Z,33.22
2023-06-09T05:27:53.629Z,33.22
2023-06-09T05:28:53.623Z,33.22
2023-06-09T05:29:53.643Z,33.27
2023-06-09T05:30:53.657Z,33.21
2023-06-09T05:31:53.747Z,33.22
2023-06-09T05:32:53.695Z,33.20
2023-06-09T05:33:53.621Z,33.21
2023-06-09T05:34:53.649Z,33.23
2023-06-09T05:35:53.655Z,33.19
2023-06-09T05:36:53.646Z,33.19
2023-06-09T05:37:53.662Z,33.22
2023-06-09T05:38:53.655Z,33.19
2023-06-09T05:39:53.679Z,33.19
2023-06-09T05:40:53.651Z,33.18
2023-06-09T05:41:53.695Z,33.15
2023-06-09T05:42:53.703Z,33.16
2023-06-09T05:43:53.726Z,33.15
2023-06-09T05:44:53.765Z,33.20
2023-06-09T05:45:53.766Z,33.20
2023-06-09T05:46:53.745Z,33.22
2023-06-09T05:47:53.825Z,33.22
2023-06-09T05:48:53.802Z,33.21
2023-06-09T05:49:53.788Z,33.19
2023-06-09T05:50:53.791Z,33.20
2023-06-09T05:51:53.790Z,33.17
2023-06-09T05:52:53.806Z,33.19
2023-06-09T05:53:53.807Z,33.23
2023-06-09T05:54:53.845Z,33.25
2023-06-09T05:55:53.856Z,33.22
2023-06-09T05:56:53.893Z,33.22
2023-06-09T05:57:53.826Z,33.25
2023-06-09T05:58:53.878Z,33.27
2023-06-09T05:59:53.833Z,33.26
2023-06-09T06:00:53.887Z,33.31
2023-06-09T06:01:53.953Z,33.27
2023-06-09T06:02:53.977Z,33.29
2023-06-09T06:03:53.945Z,33.35
2023-06-09T06:04:53.870Z,33.32
2023-06-09T06:05:53.877Z,33.34
2023-06-09T06:06:53.889Z,33.30
2023-06-09T06:07:53.897Z,33.36
2023-06-09T06:08:53.946Z,33.40
2023-06-09T06:09:53.913Z,33.38
2023-06-09T06:10:53.910Z,33.37
2023-06-09T06:11:53.927Z,33.34
2023-06-09T06:12:53.926Z,33.37
2023-06-09T06:13:53.942Z,33.41
2023-06-09T06:14:53.941Z,33.40
2023-06-09T06:15:53.971Z,33.37
2023-06-09T06:16:54.003Z,33.38
2023-06-09T06:17:54.034Z,33.34
2023-06-09T06:18:54.015Z,33.35
2023-06-09T06:19:54.026Z,33.36
2023-06-09T06:20:54.033Z,33.31
2023-06-09T06:21:54.061Z,33.35
2023-06-09T06:22:54.068Z,33.38
2023-06-09T06:23:54.109Z,33.36
2023-06-09T06:24:54.070Z,33.38
2023-06-09T06:25:54.128Z,33.33
2023-06-09T06:26:54.145Z,33.37
2023-06-09T06:27:54.135Z,33.34
2023-06-09T06:28:54.151Z,33.39
2023-06-09T06:29:54.159Z,33.37
2023-06-09T06:30:54.185Z,33.36
2023-06-09T06:31:54.252Z,33.39
2023-06-09T06:32:54.597Z,33.35
2023-06-09T06:33:54.251Z,33.40
2023-06-09T06:34:54.257Z,33.38
2023-06-09T06:35:54.253Z,33.39
2023-06-09T06:36:54.303Z,33.40
2023-06-09T06:37:54.333Z,33.37
2023-06-09T06:38:54.338Z,33.39
2023-06-09T06:39:54.312Z,33.45
2023-06-09T06:40:54.326Z,33.47
2023-06-09T06:41:54.345Z,33.44
2023-06-09T06:42:54.374Z,33.46
2023-06-09T06:43:54.373Z,33.45
2023-06-09T06:44:56.305Z,33.44
2023-06-09T06:45:54.444Z,33.51
2023-06-09T06:46:54.424Z,33.49
2023-06-09T06:47:54.414Z,33.51
2023-06-09T06:48:54.341Z,33.53
2023-06-09T06:49:54.342Z,33.50
2023-06-09T06:50:54.338Z,33.53
2023-06-09T06:51:54.351Z,33.53
2023-06-09T06:52:54.317Z,33.54
2023-06-09T06:53:54.285Z,33.48
2023-06-09T06:54:54.297Z,33.53
2023-06-09T06:55:54.314Z,33.52
2023-06-09T06:56:54.261Z,33.55
2023-06-09T06:57:54.281Z,33.57
2023-06-09T06:58:54.254Z,33.50
2023-06-09T06:59:54.244Z,33.58
2023-06-09T07:00:54.315Z,33.62
2023-06-09T07:01:54.268Z,33.56
2023-06-09T07:02:54.298Z,33.60
2023-06-09T07:03:54.263Z,33.61
2023-06-09T07:04:54.215Z,33.60
2023-06-09T07:05:54.240Z,33.59
2023-06-09T07:06:54.295Z,33.58
2023-06-09T07:07:54.205Z,33.61
2023-06-09T07:08:54.182Z,33.64
2023-06-09T07:09:54.257Z,33.63
2023-06-09T07:10:54.202Z,33.65
2023-06-09T07:11:54.238Z,33.62
2023-06-09T07:12:54.176Z,33.65
2023-06-09T07:13:54.147Z,33.61
2023-06-09T07:14:54.151Z,33.68
2023-06-09T07:15:54.121Z,33.63
2023-06-09T07:16:54.115Z,33.68
2023-06-09T07:17:54.209Z,33.71
2023-06-09T07:18:54.303Z,33.67
2023-06-09T07:19:54.124Z,33.72
2023-06-09T07:20:54.076Z,33.69
2023-06-09T07:21:54.103Z,33.71
2023-06-09T07:22:54.099Z,33.70
2023-06-09T07:23:54.094Z,33.71
2023-06-09T07:24:54.086Z,33.72
2023-06-09T07:25:54.101Z,33.72
2023-06-09T07:26:54.062Z,33.75
2023-06-09T07:27:54.073Z,33.73
2023-06-09T07:28:54.101Z,33.72
2023-06-09T07:29:54.046Z,33.77
2023-06-09T07:30:54.059Z,33.74
2023-06-09T07:31:54.100Z,33.76
2023-06-09T07:32:54.027Z,33.68
2023-06-09T07:33:54.006Z,33.79
2023-06-09T07:34:54.110Z,33.78
2023-06-09T07:35:53.994Z,33.74
2023-06-09T07:36:53.986Z,33.80
2023-06-09T07:37:53.977Z,33.85
2023-06-09T07:38:54.013Z,33.96
2023-06-09T07:40:01.529Z,33.99
2023-06-09T07:40:54.934Z,34.02
2023-06-09T07:41:54.042Z,34.04
2023-06-09T07:42:53.924Z,34.01
2023-06-09T07:43:53.930Z,34.04
2023-06-09T07:44:53.925Z,34.06
2023-06-09T07:45:53.960Z,34.09
2023-06-09T07:46:53.918Z,34.10
2023-06-09T07:47:53.957Z,34.07
2023-06-09T07:48:53.910Z,34.08
2023-06-09T07:49:53.876Z,34.09
2023-06-09T07:51:01.335Z,34.12
2023-06-09T07:51:54.965Z,34.14
2023-06-09T07:52:54.006Z,34.17
2023-06-09T07:53:53.868Z,34.17
2023-06-09T07:54:53.882Z,34.19
2023-06-09T07:55:53.852Z,34.19
2023-06-09T07:56:53.897Z,34.21
2023-06-09T07:57:53.818Z,34.21
2023-06-09T07:58:53.812Z,34.22
2023-06-09T07:59:53.809Z,34.20
2023-06-09T08:00:53.820Z,34.22
2023-06-09T08:01:53.822Z,34.22
2023-06-09T08:02:53.856Z,34.22
2023-06-09T08:03:53.879Z,34.23
2023-06-09T08:04:53.907Z,34.22
2023-06-09T08:05:53.820Z,34.23
2023-06-09T08:06:53.866Z,34.27
2023-06-09T08:07:53.872Z,34.26
2023-06-09T08:08:53.901Z,34.26
2023-06-09T08:09:54.001Z,34.29
2023-06-09T08:10:54.022Z,34.29
2023-06-09T08:11:54.017Z,34.31
2023-06-09T08:12:54.076Z,34.30
2023-06-09T08:13:54.101Z,34.33
2023-06-09T08:14:54.124Z,34.32
2023-06-09T08:15:54.189Z,34.33
2023-06-09T08:16:54.201Z,34.33
2023-06-09T08:17:54.325Z,34.32
2023-06-09T08:18:54.325Z,34.31
2023-06-09T08:19:54.339Z,34.32
2023-06-09T08:20:54.381Z,34.31
2023-06-09T08:21:54.415Z,34.33
2023-06-09T08:22:55.376Z,34.34
2023-06-09T08:23:54.542Z,34.35
2023-06-09T08:24:54.503Z,34.35
2023-06-09T08:25:54.549Z,34.37
2023-06-09T08:26:54.586Z,34.36
2023-06-09T08:27:54.628Z,34.37
2023-06-09T08:28:54.674Z,34.36
2023-06-09T08:29:54.673Z,34.37
2023-06-09T08:30:54.742Z,34.36
2023-06-09T08:31:54.787Z,34.37
2023-06-09T08:32:54.858Z,34.40
2023-06-09T08:33:54.795Z,34.38
2023-06-09T08:34:54.838Z,34.37
2023-06-09T08:35:54.889Z,34.38
2023-06-09T08:36:54.920Z,34.39
2023-06-09T08:37:54.952Z,34.38
2023-06-09T08:38:54.972Z,34.40
2023-06-09T08:39:55.012Z,34.42
2023-06-09T08:40:55.020Z,34.42
2023-06-09T08:41:55.067Z,34.42
2023-06-09T08:42:55.096Z,34.44
2023-06-09T08:43:55.250Z,34.46
2023-06-09T08:44:55.195Z,34.45
2023-06-09T08:45:55.251Z,34.45
2023-06-09T08:46:55.357Z,34.45
2023-06-09T08:47:55.363Z,34.48
2023-06-09T08:48:55.356Z,34.49
2023-06-09T08:49:55.392Z,34.47
2023-06-09T08:50:55.427Z,34.45
2023-06-09T08:51:55.475Z,34.48
2023-06-09T08:52:55.564Z,34.48
2023-06-09T08:53:55.564Z,34.49
2023-06-09T08:54:55.599Z,34.48
2023-06-09T08:55:55.666Z,34.50
2023-06-09T08:56:55.750Z,34.51
2023-06-09T08:57:55.734Z,34.49
2023-06-09T08:58:55.792Z,34.49
2023-06-09T08:59:55.832Z,34.51
2023-06-09T09:00:55.920Z,34.50
2023-06-09T09:01:55.900Z,34.51
2023-06-09T09:02:56.018Z,34.51
2023-06-09T09:03:56.064Z,34.49
2023-06-09T09:04:56.022Z,34.50
2023-06-09T09:05:56.071Z,34.51
2023-06-09T09:06:56.113Z,34.54
2023-06-09T09:07:56.177Z,34.51
2023-06-09T09:08:56.234Z,34.53
2023-06-09T09:09:56.228Z,34.53
2023-06-09T09:10:56.340Z,34.51
2023-06-09T09:11:56.318Z,34.53
2023-06-09T09:12:56.393Z,34.50
2023-06-09T09:13:56.425Z,34.56
2023-06-09T09:14:56.420Z,34.53
2023-06-09T09:15:56.549Z,34.52
2023-06-09T09:16:56.491Z,34.52
2023-06-09T09:17:56.592Z,34.54
2023-06-09T09:18:56.577Z,34.48
2023-06-09T09:19:56.616Z,34.49
2023-06-09T09:20:56.647Z,34.56
2023-06-09T09:21:56.700Z,34.51
2023-06-09T09:22:56.738Z,34.54
2023-06-09T09:23:56.829Z,34.51
2023-06-09T09:24:56.834Z,34.50
2023-06-09T09:25:56.889Z,34.54
2023-06-09T09:26:56.892Z,34.56
2023-06-09T09:27:56.946Z,34.56
2023-06-09T09:28:56.989Z,34.54
2023-06-09T09:29:57.017Z,34.55
2023-06-09T09:30:57.227Z,34.52
2023-06-09T09:31:57.129Z,34.51
2023-06-09T09:32:57.157Z,34.52
2023-06-09T09:33:57.198Z,34.52
2023-06-09T09:34:57.257Z,34.54
2023-06-09T09:35:57.383Z,34.53
2023-06-09T09:36:57.384Z,34.57
2023-06-09T09:37:57.384Z,34.57
2023-06-09T09:38:57.384Z,34.56
2023-06-09T09:39:57.399Z,34.56
2023-06-09T09:40:57.499Z,34.56
2023-06-09T09:41:57.522Z,34.53
2023-06-09T09:42:57.512Z,34.57
2023-06-09T09:43:57.588Z,34.54
2023-06-09T09:44:57.634Z,34.55
2023-06-09T09:45:57.715Z,34.55
2023-06-09T09:46:57.757Z,34.59
2023-06-09T09:47:57.783Z,34.57
2023-06-09T09:48:57.759Z,34.58
2023-06-09T09:49:57.781Z,34.55
2023-06-09T09:50:57.823Z,34.56
2023-06-09T09:51:57.899Z,34.53
2023-06-09T09:52:57.857Z,34.53
2023-06-09T09:53:57.965Z,34.53
2023-06-09T09:54:58.030Z,34.54
2023-06-09T09:55:58.025Z,34.55
2023-06-09T09:56:58.063Z,34.59
2023-06-09T09:57:58.120Z,34.58
2023-06-09T09:58:58.127Z,34.58
2023-06-09T09:59:58.200Z,34.58
2023-06-09T10:00:58.277Z,34.57
2023-06-09T10:01:58.283Z,34.54
2023-06-09T10:02:58.334Z,34.54
2023-06-09T10:03:58.374Z,34.54
2023-06-09T10:04:58.355Z,34.54
2023-06-09T10:05:58.414Z,34.72
2023-06-09T10:06:58.494Z,34.67
2023-06-09T10:07:59.440Z,34.63
2023-06-09T10:08:58.468Z,34.68
2023-06-09T10:09:58.515Z,34.63
2023-06-09T10:10:58.566Z,34.60
2023-06-09T10:11:59.415Z,34.62
2023-06-09T10:12:58.627Z,34.59
2023-06-09T10:13:58.667Z,34.57
2023-06-09T10:14:58.699Z,34.61
2023-06-09T10:15:58.753Z,34.64
2023-06-09T10:16:58.827Z,34.60
2023-06-09T10:17:58.812Z,34.58
2023-06-09T10:18:58.807Z,34.61
2023-06-09T10:19:58.887Z,34.60
2023-06-09T10:20:58.930Z,34.56
2023-06-09T10:21:58.926Z,34.56
2023-06-09T10:22:58.952Z,34.53
2023-06-09T10:23:59.039Z,34.56
2023-06-09T10:24:59.011Z,34.57
2023-06-09T10:25:59.083Z,34.58
2023-06-09T10:26:59.078Z,34.57
2023-06-09T10:27:59.155Z,34.56
2023-06-09T10:28:59.168Z,34.53
2023-06-09T10:29:59.221Z,34.58
2023-06-09T10:30:59.222Z,34.57
2023-06-09T10:31:59.345Z,34.53
2023-06-09T10:32:59.310Z,34.57
2023-06-09T10:33:59.325Z,34.50
2023-06-09T10:34:59.382Z,34.54
2023-06-09T10:35:59.686Z,34.52
2023-06-09T10:36:59.425Z,34.50
2023-06-09T10:37:59.439Z,34.50
2023-06-09T10:38:59.508Z,34.50
2023-06-09T10:39:59.516Z,34.51
2023-06-09T10:40:59.598Z,34.51
2023-06-09T10:42:00.635Z,34.52
2023-06-09T10:42:59.676Z,34.54
2023-06-09T10:43:59.688Z,34.56
2023-06-09T10:44:59.762Z,34.51
2023-06-09T10:45:59.766Z,34.52
2023-06-09T10:46:59.844Z,34.54
2023-06-09T10:47:59.905Z,34.54
2023-06-09T10:48:59.881Z,34.57
2023-06-09T10:49:59.900Z,34.54
2023-06-09T10:50:59.930Z,34.54
2023-06-09T10:51:59.937Z,34.53
2023-06-09T10:53:00.120Z,34.53
2023-06-09T10:54:00.060Z,34.56
2023-06-09T10:55:00.095Z,34.52
2023-06-09T10:56:00.118Z,34.53
2023-06-09T10:57:00.169Z,34.50
2023-06-09T10:58:00.186Z,34.52
2023-06-09T10:59:00.212Z,34.52
2023-06-09T11:00:00.228Z,34.52
2023-06-09T11:01:00.262Z,34.53
2023-06-09T11:02:00.587Z,34.51
2023-06-09T11:03:00.438Z,34.52
2023-06-09T11:04:00.428Z,34.52
2023-06-09T11:05:00.439Z,34.52
2023-06-09T11:06:00.452Z,34.54
2023-06-09T11:07:00.502Z,34.55
2023-06-09T11:08:00.502Z,34.53
2023-06-09T11:09:00.540Z,34.50
2023-06-09T11:10:00.563Z,34.55
2023-06-09T11:11:00.649Z,34.54
2023-06-09T11:12:00.641Z,34.54
2023-06-09T11:13:00.665Z,34.53
2023-06-09T11:14:00.677Z,34.55
2023-06-09T11:15:01.125Z,34.53
2023-06-09T11:16:00.725Z,34.53
2023-06-09T11:17:00.790Z,34.51
2023-06-09T11:18:00.832Z,34.53
2023-06-09T11:19:00.874Z,34.50
2023-06-09T11:20:00.911Z,34.51
2023-06-09T11:21:00.899Z,34.53
2023-06-09T11:22:00.898Z,34.50
2023-06-09T11:23:01.097Z,34.51
2023-06-09T11:24:01.203Z,34.57
2023-06-09T11:25:01.003Z,34.60
2023-06-09T11:26:01.031Z,34.65
2023-06-09T11:27:01.013Z,34.59
2023-06-09T11:28:01.066Z,34.62
2023-06-09T11:29:01.088Z,34.53
2023-06-09T11:30:01.119Z,34.57
2023-06-09T11:31:01.137Z,34.56
2023-06-09T11:32:01.239Z,34.58
2023-06-09T11:33:01.174Z,34.56
2023-06-09T11:34:01.154Z,34.59
2023-06-09T11:35:01.198Z,34.52
2023-06-09T11:36:01.234Z,34.56
2023-06-09T11:37:01.209Z,34.50
2023-06-09T11:38:01.243Z,34.57
2023-06-09T11:39:01.267Z,34.55
2023-06-09T11:40:01.295Z,34.52
2023-06-09T11:41:01.316Z,34.53
2023-06-09T11:42:01.335Z,34.52
2023-06-09T11:43:01.351Z,34.52
2023-06-09T11:44:01.403Z,34.50
2023-06-09T11:45:01.402Z,34.56
2023-06-09T11:46:01.446Z,34.50
2023-06-09T11:47:01.386Z,34.49
2023-06-09T11:48:01.653Z,34.50
2023-06-09T11:49:01.503Z,34.57
2023-06-09T11:50:01.477Z,34.53
2023-06-09T11:51:01.494Z,34.51
2023-06-09T11:52:01.496Z,34.52
2023-06-09T11:53:01.547Z,34.52
2023-06-09T11:54:01.560Z,34.54
2023-06-09T11:55:01.564Z,34.48
2023-06-09T11:56:01.605Z,34.50
2023-06-09T11:57:01.597Z,34.55
2023-06-09T11:58:01.637Z,34.49
2023-06-09T11:59:01.603Z,34.55
2023-06-09T12:00:01.649Z,34.52
2023-06-09T12:01:01.658Z,34.54
2023-06-09T12:02:01.706Z,34.51
2023-06-09T12:03:01.796Z,34.49
2023-06-09T12:04:01.670Z,34.52
2023-06-09T12:05:01.735Z,34.56
2023-06-09T12:06:01.748Z,34.50
2023-06-09T12:07:01.738Z,34.53
2023-06-09T12:08:01.778Z,34.52
2023-06-09T12:09:01.743Z,34.50
2023-06-09T12:10:01.767Z,34.54
2023-06-09T12:11:01.722Z,34.54
2023-06-09T12:12:01.835Z,34.48
2023-06-09T12:13:01.788Z,34.52
2023-06-09T12:14:01.788Z,34.52
2023-06-09T12:15:01.791Z,34.51
2023-06-09T12:16:01.831Z,34.49
2023-06-09T12:17:01.847Z,34.55
2023-06-09T12:18:01.914Z,34.48
2023-06-09T12:19:01.902Z,34.52
2023-06-09T12:20:01.930Z,34.53
2023-06-09T12:21:01.925Z,34.53
2023-06-09T12:22:02.001Z,34.52
2023-06-09T12:23:04.486Z,34.53
2023-06-09T12:24:01.977Z,34.53
2023-06-09T12:25:01.926Z,34.51
2023-06-09T12:26:01.890Z,34.52
2023-06-09T12:27:01.903Z,34.47
2023-06-09T12:28:01.942Z,34.51
2023-06-09T12:29:01.965Z,34.48
2023-06-09T12:30:01.926Z,34.51
2023-06-09T12:31:01.889Z,34.49
2023-06-09T12:32:01.881Z,34.51
2023-06-09T12:33:02.067Z,34.43
2023-06-09T12:34:01.860Z,34.50
2023-06-09T12:35:01.886Z,34.47
2023-06-09T12:36:01.870Z,34.48
2023-06-09T12:37:01.842Z,34.50
2023-06-09T12:38:01.865Z,34.49
2023-06-09T12:39:01.854Z,34.49
2023-06-09T12:40:01.836Z,34.48
2023-06-09T12:41:01.821Z,34.47
2023-06-09T12:42:01.796Z,34.50
2023-06-09T12:43:01.809Z,34.49
2023-06-09T12:44:01.790Z,34.48
2023-06-09T12:45:01.795Z,34.51
2023-06-09T12:46:01.779Z,34.47
2023-06-09T12:47:01.832Z,34.48
2023-06-09T12:48:01.840Z,34.48
2023-06-09T12:49:01.762Z,34.49
2023-06-09T12:50:01.735Z,34.47
2023-06-09T12:51:01.769Z,34.47
2023-06-09T12:52:01.786Z,34.50
2023-06-09T12:53:01.755Z,34.50